createdAt,value
2023-01-04T00:02:22.532Z,151939.41
2023-01-04T00:04:57.019Z,151947.13
2023-01-04T00:07:27.501Z,151940.69
2023-01-04T00:09:57.743Z,151927.75
2023-01-04T00:12:27.835Z,151925.22
2023-01-04T00:15:01.146Z,151935.53
2023-01-04T00:17:32.765Z,151941.97
2023-01-04T00:20:05.516Z,151936.81
2023-01-04T00:22:37.335Z,151918.72
2023-01-04T00:25:08.394Z,151927.75
2023-01-04T00:27:38.473Z,151914.88
2023-01-04T00:30:09.744Z,151891.66
2023-01-04T00:32:40.122Z,151894.25
2023-01-04T00:35:32.928Z,151886.50
2023-01-04T00:38:05.307Z,151865.84
2023-01-04T00:40:35.295Z,151851.66
2023-01-04T00:43:05.775Z,151846.44
2023-01-04T00:45:36.525Z,151860.69
2023-01-04T00:48:07.442Z,151855.53
2023-01-04T00:50:40.247Z,151863.25
2023-01-04T00:53:10.304Z,151842.56
2023-01-04T00:55:40.472Z,151833.53
2023-01-04T00:58:10.783Z,151824.47
2023-01-04T01:00:43.005Z,151829.63
2023-01-04T01:03:13.157Z,151810.34
2023-01-04T01:05:46.071Z,151806.44
2023-01-04T01:08:28.327Z,151802.56
2023-01-04T01:10:58.857Z,151803.84
2023-01-04T01:13:28.912Z,151794.81
2023-01-04T01:15:59.196Z,151769.00
2023-01-04T01:18:29.293Z,151745.78
2023-01-04T01:21:02.560Z,151732.91
2023-01-04T01:23:32.697Z,151738.06
2023-01-04T01:26:04.514Z,151748.38
2023-01-04T01:28:34.614Z,151738.06
2023-01-04T01:31:09.702Z,151734.19
2023-01-04T01:33:40.304Z,151727.75
2023-01-04T01:36:14.477Z,151698.09
2023-01-04T01:38:45.085Z,151720.00
2023-01-04T01:41:21.661Z,151710.97
2023-01-04T01:43:57.607Z,151699.38
2023-01-04T01:46:30.882Z,151709.69
2023-01-04T01:49:05.530Z,151717.44
2023-01-04T01:51:38.793Z,151716.13
2023-01-04T01:54:14.373Z,151727.75
2023-01-04T01:56:47.598Z,151709.69
2023-01-04T01:59:20.040Z,151672.31
2023-01-04T02:01:50.447Z,151645.19
2023-01-04T02:04:21.016Z,151652.97
2023-01-04T02:06:58.106Z,151654.22
2023-01-04T02:09:28.463Z,151629.72
2023-01-04T02:11:58.690Z,151629.72
2023-01-04T02:14:32.217Z,151638.78
2023-01-04T02:17:11.843Z,151615.53
2023-01-04T02:20:06.884Z,151592.31
2023-01-04T02:23:01.334Z,151562.66
2023-01-04T02:25:46.033Z,151544.66
2023-01-04T02:28:25.789Z,151544.66
2023-01-04T02:31:24.536Z,151530.47
2023-01-04T02:34:01.428Z,151524.00
2023-01-04T02:36:39.626Z,151503.38
2023-01-04T02:39:24.346Z,151487.91
2023-01-04T02:42:00.918Z,151467.31
2023-01-04T02:44:48.795Z,151462.16
2023-01-04T02:47:46.123Z,151441.53
2023-01-04T02:50:33.295Z,151435.06
2023-01-04T02:53:11.234Z,151437.66
2023-01-04T02:55:51.364Z,151432.50
2023-01-04T02:58:34.087Z,151379.66
2023-01-04T03:01:29.097Z,151359.06
2023-01-04T03:04:27.587Z,151337.13
2023-01-04T03:07:05.684Z,151329.41
2023-01-04T03:09:38.904Z,151328.16
2023-01-04T03:12:27.624Z,151323.00
2023-01-04T03:15:02.543Z,151315.25
2023-01-04T03:17:37.599Z,151302.34
2023-01-04T03:20:13.041Z,151295.91
2023-01-04T03:22:58.948Z,151276.59
2023-01-04T03:25:45.823Z,151293.38
2023-01-04T03:28:30.827Z,151262.41
2023-01-04T03:31:19.519Z,151271.44
2023-01-04T03:34:02.722Z,151256.00
2023-01-04T03:36:47.325Z,151227.66
2023-01-04T03:39:37.528Z,151235.38
2023-01-04T03:42:29.799Z,151216.06
2023-01-04T03:45:22.094Z,151221.22
2023-01-04T03:48:11.356Z,151200.63
2023-01-04T03:50:44.783Z,151217.34
2023-01-04T03:53:18.555Z,151230.25
2023-01-04T03:55:51.897Z,151210.91
2023-01-04T03:58:23.330Z,151228.91
2023-01-04T04:01:04.387Z,151219.94
2023-01-04T04:03:47.485Z,151213.47
2023-01-04T04:06:30.345Z,151213.47
2023-01-04T04:09:03.191Z,151196.75
2023-01-04T04:11:33.327Z,151201.91
2023-01-04T04:14:03.890Z,151194.16
2023-01-04T04:16:34.191Z,151173.56
2023-01-04T04:19:08.557Z,151147.81
2023-01-04T04:21:42.006Z,151162.00
2023-01-04T04:24:20.757Z,151137.53
2023-01-04T04:26:51.162Z,151152.97
2023-01-04T04:29:21.668Z,151147.81
2023-01-04T04:31:52.159Z,151158.13
2023-01-04T04:34:22.451Z,151151.69
2023-01-04T04:36:52.744Z,151141.41
2023-01-04T04:39:27.810Z,151137.53
2023-01-04T04:41:55.288Z,151146.53
2023-01-04T04:44:25.788Z,151134.91
2023-01-04T04:46:56.032Z,151125.94
2023-01-04T04:49:26.049Z,151128.50
2023-01-04T04:51:56.171Z,151115.59
2023-01-04T04:54:29.120Z,151107.91
2023-01-04T04:56:59.195Z,151097.63
2023-01-04T04:59:29.236Z,151101.50
2023-01-04T05:01:59.427Z,151100.16
2023-01-04T05:04:29.805Z,151101.50
2023-01-04T05:06:59.980Z,151107.91
2023-01-04T05:09:32.782Z,151100.16
2023-01-04T05:12:15.138Z,151082.16
2023-01-04T05:14:45.232Z,151064.13
2023-01-04T05:17:15.245Z,151031.94
2023-01-04T05:19:45.652Z,151037.09
2023-01-04T05:22:15.932Z,151021.66
2023-01-04T05:24:48.656Z,150998.50
2023-01-04T05:27:19.137Z,150974.06
2023-01-04T05:30:01.709Z,150940.59
2023-01-04T05:32:31.922Z,150916.16
2023-01-04T05:35:02.275Z,150907.13
2023-01-04T05:37:32.533Z,150877.53
2023-01-04T05:40:05.375Z,150863.38
2023-01-04T05:42:35.435Z,150846.69
2023-01-04T05:45:05.742Z,150853.09
2023-01-04T05:47:36.467Z,150840.22
2023-01-04T05:50:07.857Z,150833.78
2023-01-04T05:52:38.900Z,150814.50
2023-01-04T05:55:14.813Z,150815.78
2023-01-04T05:57:47.162Z,150822.25
2023-01-04T06:00:18.161Z,150806.81
2023-01-04T06:02:48.490Z,150819.63
2023-01-04T06:05:18.632Z,150811.94
2023-01-04T06:07:48.765Z,150813.22
2023-01-04T06:10:22.264Z,150808.09
2023-01-04T06:12:52.374Z,150799.06
2023-01-04T06:15:22.721Z,150811.94
2023-01-04T06:17:52.956Z,150784.91
2023-01-04T06:20:23.070Z,150784.91
2023-01-04T06:22:53.296Z,150777.22
2023-01-04T06:25:25.956Z,150763.06
2023-01-04T06:27:56.053Z,150779.78
2023-01-04T06:30:28.414Z,150779.78
2023-01-04T06:32:59.105Z,150777.22
2023-01-04T06:35:29.113Z,150769.50
2023-01-04T06:37:59.148Z,150779.78
2023-01-04T06:40:31.737Z,150766.94
2023-01-04T06:43:02.041Z,150750.19
2023-01-04T06:45:33.384Z,150742.50
2023-01-04T06:48:08.978Z,150727.03
2023-01-04T06:50:39.685Z,150727.03
2023-01-04T06:53:09.843Z,150738.66
2023-01-04T06:55:42.667Z,150745.06
2023-01-04T06:58:12.706Z,150761.75
2023-01-04T07:00:43.060Z,150755.34
2023-01-04T07:03:15.915Z,150755.34
2023-01-04T07:05:46.718Z,150755.34
2023-01-04T07:08:17.884Z,150738.66
2023-01-04T07:10:52.139Z,150727.03
2023-01-04T07:13:22.187Z,150720.63
2023-01-04T07:15:52.644Z,150736.03
2023-01-04T07:18:22.796Z,150743.78
2023-01-04T07:20:52.965Z,150764.34
2023-01-04T07:23:23.127Z,150778.50
2023-01-04T07:25:55.821Z,150782.38
2023-01-04T07:28:38.050Z,150786.19
2023-01-04T07:31:09.588Z,150791.34
2023-01-04T07:33:40.049Z,150796.53
2023-01-04T07:36:11.015Z,150802.94
2023-01-04T07:38:41.046Z,150818.38
2023-01-04T07:41:13.997Z,150829.94
2023-01-04T07:43:44.043Z,150833.78
2023-01-04T07:46:14.207Z,150844.09
2023-01-04T07:48:44.326Z,150859.50
2023-01-04T07:51:14.430Z,150890.41
2023-01-04T07:53:44.528Z,150908.41
2023-01-04T07:56:18.970Z,150940.59
2023-01-04T07:58:49.199Z,150962.44
2023-01-04T08:01:21.083Z,151006.19
2023-01-04T08:03:51.354Z,151075.69
2023-01-04T08:06:24.135Z,151096.34
2023-01-04T08:08:54.210Z,151131.09
2023-01-04T08:11:26.928Z,151189.00
2023-01-04T08:13:57.249Z,151221.22
2023-01-04T08:16:31.962Z,151292.03
2023-01-04T08:19:03.387Z,151276.59
2023-01-04T08:21:35.029Z,151297.19
2023-01-04T08:24:05.594Z,151302.34
2023-01-04T08:26:39.359Z,151329.41
2023-01-04T08:29:09.182Z,151375.78
2023-01-04T08:31:39.545Z,151427.34
2023-01-04T08:34:12.096Z,151441.53
2023-01-04T08:36:50.266Z,151467.31
2023-01-04T08:39:21.866Z,151482.75
2023-01-04T08:42:02.129Z,151408.03
2023-01-04T08:44:34.616Z,151379.66
2023-01-04T08:47:05.153Z,151285.63
2023-01-04T08:49:35.308Z,151239.28
2023-01-04T08:52:05.403Z,151210.91
2023-01-04T08:54:36.136Z,151205.78
2023-01-04T08:57:08.766Z,151261.16
2023-01-04T08:59:39.054Z,151198.03
2023-01-04T09:02:17.939Z,151149.09
2023-01-04T09:04:48.152Z,151183.84
2023-01-04T09:07:18.755Z,151190.31
2023-01-04T09:09:48.780Z,151194.16
2023-01-04T09:12:21.415Z,151177.44
2023-01-04T09:14:51.457Z,151222.50
2023-01-04T09:17:21.562Z,151221.22
2023-01-04T09:19:51.598Z,151225.09
2023-01-04T09:22:21.691Z,151214.78
2023-01-04T09:24:51.984Z,151226.38
2023-01-04T09:27:24.629Z,151213.47
2023-01-04T09:29:54.843Z,151223.78
2023-01-04T09:32:24.864Z,151249.56
2023-01-04T09:34:56.493Z,151283.03
2023-01-04T09:37:28.833Z,151303.66
2023-01-04T09:39:59.124Z,151326.81
2023-01-04T09:42:39.737Z,151384.81
2023-01-04T09:45:24.214Z,151419.59
2023-01-04T09:47:58.676Z,151431.22
2023-01-04T09:50:32.290Z,151458.28
2023-01-04T09:53:14.158Z,151499.50
2023-01-04T09:55:49.823Z,151531.75
2023-01-04T09:58:31.637Z,151553.63
2023-01-04T10:01:05.744Z,151567.81
2023-01-04T10:03:39.006Z,151556.25
2023-01-04T10:06:12.566Z,151587.16
2023-01-04T10:08:44.725Z,151536.91
2023-01-04T10:11:29.347Z,151578.13
2023-01-04T10:14:17.336Z,151631.00
2023-01-04T10:17:28.248Z,151602.63
2023-01-04T10:23:26.798Z,151642.59
2023-01-04T10:26:00.109Z,151707.13
2023-01-04T10:28:44.587Z,151738.06
2023-01-04T10:31:40.781Z,151778.06
2023-01-04T10:34:24.240Z,151838.69
2023-01-04T10:37:00.132Z,151864.53
2023-01-04T10:39:36.069Z,151843.84
2023-01-04T10:42:17.419Z,151842.56
2023-01-04T10:45:05.071Z,151823.19
2023-01-04T10:47:52.323Z,151824.47
2023-01-04T10:50:28.155Z,151834.78
2023-01-04T10:53:05.215Z,151878.72
2023-01-04T10:56:23.220Z,151903.25
2023-01-04T10:58:39.458Z,151920.06
2023-01-04T11:01:16.289Z,151925.22
2023-01-04T11:03:55.096Z,151896.81
2023-01-04T11:06:28.267Z,151922.59
2023-01-04T11:09:02.611Z,151947.13
2023-01-04T11:11:37.196Z,151962.63
2023-01-04T11:14:07.594Z,151960.06
2023-01-04T11:16:37.736Z,151960.06
2023-01-04T11:19:11.774Z,152005.22
2023-01-04T11:21:48.058Z,152016.84
2023-01-04T11:24:32.249Z,151963.94
2023-01-04T11:27:10.336Z,151967.78
2023-01-04T11:29:44.931Z,151984.59
2023-01-04T11:32:21.252Z,152005.22
2023-01-04T11:34:57.720Z,152058.19
2023-01-04T11:37:31.018Z,152049.13
2023-01-04T11:40:28.349Z,152086.59
2023-01-04T11:43:18.312Z,152078.81
2023-01-04T11:46:01.079Z,152103.38
2023-01-04T11:48:42.883Z,152105.91
2023-01-04T11:51:36.759Z,152126.63
2023-01-04T11:54:10.961Z,152142.09
2023-01-04T11:56:41.107Z,152176.97
2023-01-04T11:59:25.216Z,152195.03
2023-01-04T12:02:28.899Z,152227.34
2023-01-04T12:05:04.814Z,152251.88
2023-01-04T12:07:38.584Z,152294.53
2023-01-04T12:10:24.934Z,152319.09
2023-01-04T12:12:55.552Z,152350.09
2023-01-04T12:15:34.104Z,152386.25
2023-01-04T12:18:09.733Z,152399.22
2023-01-04T12:20:39.996Z,152422.47
2023-01-04T12:23:15.116Z,152427.66
2023-01-04T12:25:50.131Z,152434.09
2023-01-04T12:28:37.679Z,152462.56
2023-01-04T12:31:34.074Z,152466.38
2023-01-04T12:34:34.508Z,152461.22
2023-01-04T12:37:06.304Z,152458.66
2023-01-04T12:39:47.715Z,152469.06
2023-01-04T12:42:27.177Z,152474.22
2023-01-04T12:45:06.001Z,152466.38
2023-01-04T12:47:58.866Z,152471.66
2023-01-04T12:50:32.280Z,152452.22
2023-01-04T12:53:28.784Z,152440.56
2023-01-04T12:56:00.478Z,152443.16
2023-01-04T12:59:24.733Z,152450.88
2023-01-04T13:02:21.096Z,152453.50
2023-01-04T13:05:09.345Z,152461.22
2023-01-04T13:07:46.752Z,152475.50
2023-01-04T13:10:29.976Z,152469.06
2023-01-04T13:13:40.064Z,152456.06
2023-01-04T13:16:22.626Z,152471.66
2023-01-04T13:18:55.361Z,152467.78
2023-01-04T13:21:30.967Z,152465.13
2023-01-04T13:24:04.659Z,152457.38
2023-01-04T13:26:43.293Z,152471.66
2023-01-04T13:29:22.486Z,152482.00
2023-01-04T13:31:58.637Z,152474.22
2023-01-04T13:34:34.794Z,152447.03
2023-01-04T13:37:34.345Z,152454.78
2023-01-04T13:40:25.459Z,152448.31
2023-01-04T13:43:16.293Z,152452.22
2023-01-04T13:46:17.382Z,152444.44
2023-01-04T13:48:50.973Z,152438.00
2023-01-04T13:51:35.881Z,152458.66
2023-01-04T13:54:08.885Z,152452.22
2023-01-04T13:56:39.088Z,152447.03
2023-01-04T13:59:12.153Z,152447.03
2023-01-04T14:01:48.343Z,152416.00
2023-01-04T14:04:25.568Z,152401.75
2023-01-04T14:06:58.257Z,152382.38
2023-01-04T14:09:31.168Z,152384.97
2023-01-04T14:12:07.589Z,152387.53
2023-01-04T14:14:43.452Z,152372.03
2023-01-04T14:17:44.537Z,152364.31
2023-01-04T14:20:37.527Z,152337.16
2023-01-04T14:23:07.593Z,152335.88
2023-01-04T14:25:49.527Z,152321.66
2023-01-04T14:28:49.810Z,152317.75
2023-01-04T14:31:35.832Z,152293.22
2023-01-04T14:34:17.865Z,152249.28
2023-01-04T14:36:49.396Z,152220.91
2023-01-04T14:39:28.281Z,152215.75
2023-01-04T14:42:00.395Z,152200.25
2023-01-04T14:44:36.372Z,152164.03
2023-01-04T14:47:09.404Z,152122.72
2023-01-04T14:49:42.494Z,152087.88
2023-01-04T14:52:15.644Z,152067.22
2023-01-04T14:54:45.740Z,152037.53
2023-01-04T14:57:15.803Z,152013.00
2023-01-04T14:59:46.733Z,151979.41
2023-01-04T15:02:17.542Z,151940.69
2023-01-04T15:04:50.467Z,151912.28
2023-01-04T15:07:36.954Z,151890.38
2023-01-04T15:10:09.505Z,151874.88
2023-01-04T15:12:39.576Z,151842.56
2023-01-04T15:15:11.599Z,151810.34
2023-01-04T15:17:41.788Z,151783.22
2023-01-04T15:20:15.005Z,151758.69
2023-01-04T15:22:45.626Z,151738.06
2023-01-04T15:25:16.338Z,151740.63
2023-01-04T15:27:46.426Z,151727.75
2023-01-04T15:30:17.178Z,151729.03
2023-01-04T15:32:47.475Z,151708.41
2023-01-04T15:35:20.538Z,151694.22
2023-01-04T15:37:50.873Z,151710.97
2023-01-04T15:40:24.507Z,151698.09
2023-01-04T15:43:00.965Z,151677.47
2023-01-04T15:45:32.180Z,151658.13
2023-01-04T15:48:04.097Z,151633.63
2023-01-04T15:50:38.592Z,151652.97
2023-01-04T15:53:09.349Z,151643.94
2023-01-04T15:55:40.859Z,151641.31
2023-01-04T15:58:10.913Z,151614.25
2023-01-04T16:00:42.508Z,151620.69
2023-01-04T16:03:12.555Z,151610.38
2023-01-04T16:05:45.264Z,151583.28
2023-01-04T16:08:15.259Z,151574.31
2023-01-04T16:10:45.298Z,151562.66
2023-01-04T16:13:15.389Z,151542.06
2023-01-04T16:15:45.922Z,151544.66
2023-01-04T16:18:16.077Z,151538.16
2023-01-04T16:20:48.760Z,151529.13
2023-01-04T16:23:18.965Z,151518.84
2023-01-04T16:25:48.992Z,151498.22
2023-01-04T16:28:19.089Z,151484.03
2023-01-04T16:30:50.293Z,151484.03
2023-01-04T16:33:20.927Z,151505.97
2023-01-04T16:36:01.034Z,151499.50
2023-01-04T16:38:31.099Z,151512.41
2023-01-04T16:41:02.721Z,151557.50
2023-01-04T16:43:33.926Z,151556.25
2023-01-04T16:46:23.697Z,151565.28
2023-01-04T16:48:55.792Z,151589.78
2023-01-04T16:51:30.181Z,151578.13
2023-01-04T16:54:00.369Z,151549.81
2023-01-04T16:56:30.478Z,151575.56
2023-01-04T16:59:02.281Z,151583.28
2023-01-04T17:01:34.962Z,151610.38
2023-01-04T17:04:08.913Z,151641.31
2023-01-04T17:06:44.672Z,151665.81
2023-01-04T17:09:19.992Z,151686.44
2023-01-04T17:15:00.645Z,151624.56
2023-01-04T17:17:37.616Z,151600.06
2023-01-04T17:20:08.832Z,151610.38
2023-01-04T17:22:41.829Z,151623.31
2023-01-04T17:25:12.333Z,151619.44
2023-01-04T17:27:42.486Z,151616.81
2023-01-04T17:30:15.308Z,151600.06
2023-01-04T17:32:45.385Z,151598.81
2023-01-04T17:35:15.799Z,151588.44
2023-01-04T17:37:48.455Z,151574.31
2023-01-04T17:40:22.908Z,151554.97
2023-01-04T17:42:54.175Z,151545.94
2023-01-04T17:45:25.799Z,151526.59
2023-01-04T17:47:56.023Z,151504.66
2023-01-04T17:50:26.103Z,151490.50
2023-01-04T17:53:01.557Z,151476.34
2023-01-04T17:55:31.698Z,151478.88
2023-01-04T17:58:03.377Z,151473.72
2023-01-04T18:03:29.507Z,151447.97
2023-01-04T18:06:24.470Z,151435.06
2023-01-04T18:08:52.562Z,151446.69
2023-01-04T18:11:22.805Z,151447.97
2023-01-04T18:13:53.326Z,151424.75
2023-01-04T18:16:26.761Z,151419.59
2023-01-04T18:18:57.734Z,151413.16
2023-01-04T18:21:30.825Z,151414.44
2023-01-04T18:29:46.946Z,151374.50
2023-01-04T18:32:17.087Z,151392.56
2023-01-04T18:34:47.173Z,151411.91
2023-01-04T18:37:18.984Z,151431.22
2023-01-04T18:39:52.353Z,151449.25
2023-01-04T18:42:22.699Z,151464.69
2023-01-04T18:44:52.798Z,151473.72
2023-01-04T18:47:24.415Z,151460.88
2023-01-04T18:49:57.259Z,151458.28
2023-01-04T18:52:27.284Z,151441.53
2023-01-04T18:55:00.105Z,151436.38
2023-01-04T18:57:30.427Z,151460.88
2023-01-04T19:00:00.935Z,151467.31
2023-01-04T19:02:32.999Z,151480.22
2023-01-04T19:05:03.286Z,151480.22
2023-01-04T19:07:34.275Z,151494.34
2023-01-04T19:10:08.837Z,151489.19
2023-01-04T19:12:39.192Z,151485.34
2023-01-04T19:15:11.591Z,151508.53
2023-01-04T19:17:41.761Z,151499.50
2023-01-04T19:20:14.548Z,151493.06
2023-01-04T19:22:44.620Z,151485.34
2023-01-04T19:25:19.870Z,151503.38
2023-01-04T19:27:57.130Z,151520.16
2023-01-04T19:30:27.080Z,151512.41
2023-01-04T19:32:57.445Z,151517.56
2023-01-04T19:35:28.031Z,151527.88
2023-01-04T19:37:58.248Z,151549.81
2023-01-04T19:40:31.263Z,151562.66
2023-01-04T19:43:01.777Z,151578.13
2023-01-04T19:45:32.606Z,151591.03
2023-01-04T19:48:02.792Z,151605.22
2023-01-04T19:50:32.936Z,151607.78
2023-01-04T19:53:04.027Z,151611.66
2023-01-04T19:55:37.229Z,151619.44
2023-01-04T19:58:07.560Z,151610.38
2023-01-04T20:00:38.264Z,151629.72
2023-01-04T20:03:08.610Z,151631.00
2023-01-04T20:05:39.188Z,151625.84
2023-01-04T20:08:09.509Z,151631.00
2023-01-04T20:10:42.324Z,151634.88
2023-01-04T20:13:12.339Z,151643.94
2023-01-04T20:15:43.099Z,151668.44
2023-01-04T20:18:14.356Z,151681.28
2023-01-04T20:20:44.983Z,151700.66
2023-01-04T20:23:16.313Z,151721.28
2023-01-04T20:25:51.561Z,151717.44
2023-01-04T20:28:22.696Z,151723.88
2023-01-04T20:31:02.979Z,151729.03
2023-01-04T20:33:33.636Z,151699.38
2023-01-04T20:36:09.588Z,151701.97
2023-01-04T20:38:40.865Z,151709.69
2023-01-04T20:41:16.460Z,151729.03
2023-01-04T20:43:44.933Z,151743.22
2023-01-04T20:46:16.423Z,151765.13
2023-01-04T20:48:46.677Z,151763.84
2023-01-04T20:51:18.881Z,151783.22
2023-01-04T20:53:49.224Z,151767.75
2023-01-04T20:56:24.047Z,151779.34
2023-01-04T20:58:55.269Z,151790.97
2023-01-04T21:01:25.946Z,151815.50
2023-01-04T21:03:56.475Z,151845.16
2023-01-04T21:06:26.597Z,151863.25
2023-01-04T21:08:58.058Z,151878.72
2023-01-04T21:11:30.859Z,151890.38
2023-01-04T21:14:01.926Z,151899.41
2023-01-04T21:16:32.013Z,151905.84
2023-01-04T21:19:02.149Z,151905.84
2023-01-04T21:21:32.176Z,151895.53
2023-01-04T21:24:02.424Z,151895.53
2023-01-04T21:26:35.237Z,151890.38
2023-01-04T21:29:05.310Z,151898.09
2023-01-04T21:31:35.999Z,151874.88
2023-01-04T21:34:12.444Z,151872.28
2023-01-04T21:36:44.610Z,151860.69
2023-01-04T21:39:14.853Z,151861.97
2023-01-04T21:41:48.277Z,151861.97
2023-01-04T21:44:18.654Z,151859.38
2023-01-04T21:46:49.028Z,151855.53
2023-01-04T21:49:21.163Z,151869.72
2023-01-04T21:51:51.432Z,151889.03
2023-01-04T21:54:21.452Z,151901.97
2023-01-04T21:56:54.510Z,151916.16
2023-01-04T21:59:24.802Z,151905.84
2023-01-04T22:01:54.952Z,151917.44
2023-01-04T22:04:25.128Z,151912.28
2023-01-04T22:06:55.463Z,151911.00
2023-01-04T22:09:25.960Z,151901.97
2023-01-04T22:11:58.716Z,151909.72
2023-01-04T22:14:29.015Z,151905.84
2023-01-04T22:16:59.104Z,151903.25
2023-01-04T22:19:29.953Z,151923.94
2023-01-04T22:22:00.307Z,151917.44
2023-01-04T22:24:37.266Z,151909.72
2023-01-04T22:27:10.595Z,151916.16
2023-01-04T22:29:40.754Z,151922.59
2023-01-04T22:32:10.781Z,151905.84
2023-01-04T22:34:48.490Z,151896.81
2023-01-04T22:37:36.071Z,151905.84
2023-01-04T22:40:16.707Z,151900.69
2023-01-04T22:43:07.084Z,151903.25
2023-01-04T22:45:44.470Z,151900.69
2023-01-04T22:48:20.474Z,151892.94
2023-01-04T22:50:55.123Z,151898.09
2023-01-04T22:53:29.671Z,151886.50
2023-01-04T22:56:20.404Z,151882.59
2023-01-04T22:59:08.079Z,151887.75
2023-01-04T23:01:47.640Z,151871.00
2023-01-04T23:04:24.237Z,151872.28
2023-01-04T23:07:04.833Z,151882.59
2023-01-04T23:09:35.119Z,151859.38
2023-01-04T23:12:18.590Z,151858.09
2023-01-04T23:14:54.240Z,151854.22
2023-01-04T23:17:24.302Z,151830.97
2023-01-04T23:19:54.725Z,151825.81
2023-01-04T23:22:25.745Z,151806.44
2023-01-04T23:24:56.040Z,151805.13
2023-01-04T23:27:27.676Z,151787.09
2023-01-04T23:30:00.494Z,151763.84
2023-01-04T23:32:30.599Z,151750.94
2023-01-04T23:35:00.750Z,151741.94
2023-01-04T23:37:31.115Z,151738.06
2023-01-04T23:40:01.241Z,151721.28
2023-01-04T23:42:31.663Z,151708.41
2023-01-04T23:45:04.606Z,151704.53
2023-01-04T23:47:34.669Z,151698.09
2023-01-04T23:50:07.001Z,151686.44
2023-01-04T23:52:37.272Z,151678.75
2023-01-04T23:55:08.126Z,151664.53
2023-01-04T23:57:39.019Z,151680.03
